Evensville, Tennessee
Current Conditions -  °F | °C
As of 8:35 PM on Sunday 23 Nov 2014 (Local Time) from KMMI Reporting Station
Overcast Overcast  
Wind Chill: 61°   Ceiling: 4000
Heat Index: 61°   Visibility: 10mi
Dew Point: 54°   Wind: 7mph
Humidity: 77%   Direction: NA
Pressure: 29.6"   Gusts: NA
Location:  35.56°N, 84.95°W
Report Text: KMMI 240135Z AUTO VRB06KT 10SM SCT031 BKN040 OVC065 16/12 A2960 RMK
Loading
Personal Weather Stations






























Interactive Weather Map New forecast layout! Learn more

10-Day Weather Forecast

Advertisements
Track Severe Weather on mobile